createdAt,value
2017-10-05T00:00:49.376Z,17.50
2017-10-05T00:03:18.802Z,17.10
2017-10-05T00:05:48.282Z,16.90
2017-10-05T00:08:17.541Z,17.00
2017-10-05T00:10:46.755Z,16.90
2017-10-05T00:13:15.945Z,16.30
2017-10-05T00:15:45.224Z,16.60
2017-10-05T00:18:14.549Z,16.70
2017-10-05T00:20:43.741Z,17.60
2017-10-05T00:23:12.796Z,19.80
2017-10-05T00:25:42.172Z,17.00
2017-10-05T00:28:12.309Z,18.10
2017-10-05T00:30:42.245Z,17.80
2017-10-05T00:33:11.769Z,18.10
2017-10-05T00:35:41.054Z,19.30
2017-10-05T00:38:10.334Z,21.10
2017-10-05T00:40:39.873Z,22.00
2017-10-05T00:43:08.807Z,18.00
2017-10-05T00:45:38.199Z,20.60
2017-10-05T00:48:07.579Z,19.40
2017-10-05T00:50:36.789Z,19.70
2017-10-05T00:53:05.966Z,18.80
2017-10-05T00:55:35.156Z,18.00
2017-10-05T00:58:04.444Z,20.20
2017-10-05T01:00:34.080Z,21.50
2017-10-05T01:03:03.659Z,21.20
2017-10-05T01:05:32.477Z,22.60
2017-10-05T01:08:01.631Z,23.20
2017-10-05T01:10:30.932Z,22.60
2017-10-05T01:13:00.375Z,22.70
2017-10-05T01:15:29.821Z,23.20
2017-10-05T01:17:59.012Z,23.10
2017-10-05T01:20:28.579Z,23.90
2017-10-05T01:22:57.734Z,23.80
2017-10-05T01:25:26.787Z,23.20
2017-10-05T01:27:56.257Z,25.70
2017-10-05T01:30:25.625Z,25.20
2017-10-05T01:32:55.715Z,26.00
2017-10-05T01:35:25.027Z,26.10
2017-10-05T01:37:54.500Z,26.70
2017-10-05T01:40:23.803Z,26.40
2017-10-05T01:42:53.157Z,27.50
2017-10-05T01:45:24.020Z,27.60
2017-10-05T01:47:53.388Z,28.40
2017-10-05T01:50:23.737Z,28.90
2017-10-05T01:52:52.833Z,28.80
2017-10-05T01:55:22.075Z,29.50
2017-10-05T01:57:51.248Z,30.10
2017-10-05T02:00:20.421Z,30.00
2017-10-05T02:02:49.927Z,30.40
2017-10-05T02:05:20.492Z,30.90
2017-10-05T02:07:49.981Z,30.90
2017-10-05T02:10:19.077Z,32.10
2017-10-05T02:12:48.752Z,32.60
2017-10-05T02:15:18.226Z,32.80
2017-10-05T02:17:48.028Z,32.90
2017-10-05T02:20:17.478Z,32.50
2017-10-05T02:22:46.914Z,34.00
2017-10-05T02:25:16.277Z,33.10
2017-10-05T02:27:45.533Z,34.40
2017-10-05T02:30:14.984Z,34.70
2017-10-05T02:32:45.271Z,35.20
2017-10-05T02:35:15.552Z,35.00
2017-10-05T02:37:45.000Z,36.00
2017-10-05T02:40:14.081Z,36.40
2017-10-05T02:42:43.434Z,36.20
2017-10-05T02:45:12.737Z,35.70
2017-10-05T02:47:41.851Z,35.90
2017-10-05T02:50:12.089Z,37.00
2017-10-05T02:52:41.362Z,36.90
2017-10-05T02:55:12.518Z,38.00
2017-10-05T02:57:42.742Z,38.40
2017-10-05T03:00:11.853Z,38.40
2017-10-05T03:02:41.052Z,38.30
2017-10-05T03:05:10.530Z,38.30
2017-10-05T03:07:39.852Z,39.80
2017-10-05T03:10:09.345Z,39.80
2017-10-05T03:12:38.582Z,38.90
2017-10-05T03:15:07.723Z,39.60
2017-10-05T03:17:36.856Z,40.50
2017-10-05T03:20:06.061Z,40.90
2017-10-05T03:22:35.293Z,40.90
2017-10-05T03:25:04.361Z,41.10
2017-10-05T03:27:33.912Z,41.50
2017-10-05T03:30:03.398Z,41.70
2017-10-05T03:32:32.420Z,41.10
2017-10-05T03:35:02.315Z,41.90
2017-10-05T03:37:32.515Z,41.50
2017-10-05T03:40:01.522Z,43.30
2017-10-05T03:42:30.916Z,42.80
2017-10-05T03:45:00.353Z,41.40
2017-10-05T03:47:29.978Z,38.50
2017-10-05T03:50:00.234Z,42.80
2017-10-05T03:52:29.584Z,42.60
2017-10-05T03:54:59.197Z,42.00
2017-10-05T03:57:29.004Z,42.80
2017-10-05T03:59:59.237Z,43.30
2017-10-05T04:02:29.459Z,42.60
2017-10-05T04:04:59.733Z,41.90
2017-10-05T04:07:28.791Z,41.90
2017-10-05T04:09:58.071Z,38.70
2017-10-05T04:12:28.770Z,41.40
2017-10-05T04:14:58.257Z,41.40
2017-10-05T04:17:27.954Z,42.30
2017-10-05T04:19:57.277Z,42.00
2017-10-05T04:22:26.933Z,41.70
2017-10-05T04:24:56.500Z,41.60
2017-10-05T04:27:25.832Z,41.80
2017-10-05T04:29:55.876Z,42.10
2017-10-05T04:32:25.063Z,42.00
2017-10-05T04:34:55.037Z,44.30
2017-10-05T04:37:24.383Z,44.50
2017-10-05T04:39:54.959Z,44.90
2017-10-05T04:42:23.800Z,44.80
2017-10-05T04:44:53.913Z,46.20
2017-10-05T04:47:23.138Z,45.90
2017-10-05T04:49:52.361Z,46.80
2017-10-05T04:52:21.680Z,46.80
2017-10-05T04:54:50.889Z,46.60
2017-10-05T04:57:20.068Z,47.30
2017-10-05T04:59:49.098Z,47.10
2017-10-05T05:02:18.392Z,48.20
2017-10-05T05:04:48.010Z,48.60
2017-10-05T05:07:16.950Z,48.50
2017-10-05T05:09:46.352Z,49.10
2017-10-05T05:12:15.846Z,49.50
2017-10-05T05:14:44.559Z,51.00
2017-10-05T05:17:13.997Z,52.20
2017-10-05T05:19:43.869Z,55.10
2017-10-05T05:22:13.727Z,54.30
2017-10-05T05:24:43.693Z,54.60
2017-10-05T05:27:13.088Z,54.60
2017-10-05T05:29:42.189Z,54.60
2017-10-05T05:32:13.291Z,55.30
2017-10-05T05:34:43.456Z,55.20
2017-10-05T05:37:12.653Z,55.50
2017-10-05T05:39:42.181Z,55.20
2017-10-05T05:42:13.460Z,54.40
2017-10-05T05:44:44.735Z,54.90
2017-10-05T05:47:14.204Z,54.80
2017-10-05T05:49:44.301Z,55.80
2017-10-05T05:52:15.132Z,56.20
2017-10-05T05:54:45.346Z,57.20
2017-10-05T05:57:14.620Z,57.20
2017-10-05T05:59:43.766Z,56.80
2017-10-05T06:02:13.321Z,57.10
2017-10-05T06:04:43.310Z,56.70
2017-10-05T06:07:12.454Z,57.00
2017-10-05T06:09:41.687Z,56.90
2017-10-05T06:12:11.006Z,56.70
2017-10-05T06:14:41.776Z,56.20
2017-10-05T06:17:11.378Z,56.00
2017-10-05T06:19:40.617Z,55.60
2017-10-05T06:22:09.919Z,55.60
2017-10-05T06:24:39.314Z,55.20
2017-10-05T06:27:08.520Z,55.80
2017-10-05T06:29:38.111Z,55.80
2017-10-05T06:32:08.473Z,56.60
2017-10-05T06:34:37.898Z,56.40
2017-10-05T06:37:07.421Z,56.90
2017-10-05T06:39:36.850Z,58.40
2017-10-05T06:42:06.425Z,57.30
2017-10-05T06:44:36.547Z,57.60
2017-10-05T06:47:05.925Z,58.30
2017-10-05T06:49:35.421Z,58.60
2017-10-05T06:52:04.468Z,58.80
2017-10-05T06:54:33.938Z,58.40
2017-10-05T06:57:03.971Z,59.60
2017-10-05T06:59:33.241Z,59.70
2017-10-05T07:02:03.464Z,59.70
2017-10-05T07:04:33.365Z,60.00
2017-10-05T07:07:02.208Z,59.70
2017-10-05T07:09:32.251Z,61.10
2017-10-05T07:12:01.765Z,61.20
2017-10-05T07:14:31.066Z,62.00
2017-10-05T07:17:00.363Z,61.90
2017-10-05T07:19:29.554Z,62.20
2017-10-05T07:21:58.763Z,62.50
2017-10-05T07:24:28.157Z,62.80
2017-10-05T07:26:57.229Z,63.10
2017-10-05T07:29:26.340Z,63.00
2017-10-05T07:31:55.667Z,63.40
2017-10-05T07:34:24.822Z,63.40
2017-10-05T07:36:54.160Z,64.10
2017-10-05T07:39:23.599Z,64.20
2017-10-05T07:41:53.886Z,64.10
2017-10-05T07:44:23.125Z,64.20
2017-10-05T07:46:53.173Z,64.40
2017-10-05T07:49:22.715Z,64.80
2017-10-05T07:51:52.396Z,65.50
2017-10-05T07:54:21.664Z,65.40
2017-10-05T07:56:50.986Z,65.60
2017-10-05T07:59:20.546Z,65.00
2017-10-05T08:01:49.836Z,65.40
2017-10-05T08:04:18.922Z,65.80
2017-10-05T08:06:48.275Z,65.40
2017-10-05T08:09:17.697Z,65.70
2017-10-05T08:11:47.009Z,65.60
2017-10-05T08:14:16.456Z,66.30
2017-10-05T08:16:46.849Z,66.70
2017-10-05T08:19:16.617Z,66.70
2017-10-05T08:21:46.098Z,66.40
2017-10-05T08:24:15.524Z,66.60
2017-10-05T08:26:45.062Z,66.40
2017-10-05T08:29:14.345Z,66.60
2017-10-05T08:31:43.917Z,66.60
2017-10-05T08:34:13.452Z,67.80
2017-10-05T08:36:42.838Z,67.70
2017-10-05T08:39:12.187Z,68.60
2017-10-05T08:41:41.787Z,68.10
2017-10-05T08:44:11.147Z,68.20
2017-10-05T08:46:40.611Z,68.00
2017-10-05T08:49:11.325Z,67.50
2017-10-05T08:51:40.722Z,67.80
2017-10-05T08:54:10.035Z,67.60
2017-10-05T08:56:39.382Z,68.30
2017-10-05T08:59:08.431Z,68.10
2017-10-05T09:01:37.764Z,68.10
2017-10-05T09:04:08.124Z,67.00
2017-10-05T09:06:37.498Z,67.00
2017-10-05T09:09:06.881Z,67.70
2017-10-05T09:11:36.116Z,68.10
2017-10-05T09:14:06.080Z,71.10
2017-10-05T09:16:35.267Z,71.00
2017-10-05T09:19:04.805Z,70.90
2017-10-05T09:21:33.881Z,71.20
2017-10-05T09:24:03.977Z,71.00
2017-10-05T09:26:33.187Z,71.00
2017-10-05T09:29:02.686Z,70.80
2017-10-05T09:31:32.175Z,71.20
2017-10-05T09:34:01.262Z,71.40
2017-10-05T09:36:31.301Z,71.80
2017-10-05T09:39:00.417Z,71.70
2017-10-05T09:41:29.755Z,71.60
2017-10-05T09:43:58.861Z,72.00
2017-10-05T09:46:28.409Z,72.10
2017-10-05T09:48:57.528Z,72.00
2017-10-05T09:51:27.298Z,71.80
2017-10-05T09:53:56.624Z,72.20
2017-10-05T09:56:25.932Z,71.90
2017-10-05T09:58:55.957Z,73.30
2017-10-05T10:01:25.354Z,73.40
2017-10-05T10:03:54.713Z,73.60
2017-10-05T10:06:24.059Z,73.70
2017-10-05T10:08:53.337Z,72.80
2017-10-05T10:11:22.640Z,73.20
2017-10-05T10:13:52.196Z,73.70
2017-10-05T10:16:22.241Z,73.80
2017-10-05T10:18:51.423Z,73.70
2017-10-05T10:21:20.826Z,73.80
2017-10-05T10:23:50.586Z,74.40
2017-10-05T10:26:20.060Z,73.60
2017-10-05T10:28:49.425Z,73.80
2017-10-05T10:31:18.699Z,75.30
2017-10-05T10:33:48.161Z,75.20
2017-10-05T10:36:17.616Z,75.60
2017-10-05T10:38:46.785Z,75.70
2017-10-05T10:41:16.053Z,76.30
2017-10-05T10:43:45.435Z,75.80
2017-10-05T10:46:15.056Z,75.80
2017-10-05T10:48:44.662Z,75.30
2017-10-05T10:51:14.357Z,75.20
2017-10-05T10:53:44.439Z,75.20
2017-10-05T10:56:13.981Z,75.00
2017-10-05T10:58:43.489Z,75.40
2017-10-05T11:01:12.996Z,75.60
2017-10-05T11:03:42.525Z,75.70
2017-10-05T11:06:12.110Z,75.60
2017-10-05T11:08:41.306Z,76.10
2017-10-05T11:11:10.797Z,75.90
2017-10-05T11:13:40.389Z,75.20
2017-10-05T11:16:10.384Z,76.30
2017-10-05T11:18:39.843Z,76.80
2017-10-05T11:21:09.381Z,76.90
2017-10-05T11:23:38.617Z,76.80
2017-10-05T11:26:07.799Z,76.60
2017-10-05T11:28:37.208Z,76.60
2017-10-05T11:31:06.550Z,76.60
2017-10-05T11:33:35.902Z,77.00
2017-10-05T11:36:05.200Z,76.90
2017-10-05T11:38:34.614Z,76.90
2017-10-05T11:41:04.105Z,77.00
2017-10-05T11:43:34.102Z,77.50
2017-10-05T11:46:03.364Z,77.40
2017-10-05T11:48:32.544Z,77.60
2017-10-05T11:51:02.226Z,77.80
2017-10-05T11:53:31.584Z,77.80
2017-10-05T11:56:02.127Z,77.60
2017-10-05T11:58:31.374Z,77.80
2017-10-05T12:01:00.929Z,77.80
2017-10-05T12:03:30.579Z,78.40
2017-10-05T12:05:59.761Z,78.00
2017-10-05T12:08:29.411Z,77.40
2017-10-05T12:10:58.955Z,77.60
2017-10-05T12:13:28.468Z,77.30
2017-10-05T12:15:58.651Z,77.50
2017-10-05T12:18:27.864Z,77.60
2017-10-05T12:20:57.216Z,77.70
2017-10-05T12:23:26.507Z,77.10
2017-10-05T12:25:56.482Z,77.40
2017-10-05T12:28:25.507Z,77.40
2017-10-05T12:30:54.718Z,77.60
2017-10-05T12:33:23.801Z,77.60
2017-10-05T12:35:53.728Z,77.40
2017-10-05T12:38:22.808Z,77.40
2017-10-05T12:40:52.057Z,77.80
2017-10-05T12:43:22.086Z,78.20
2017-10-05T12:45:51.601Z,78.10
2017-10-05T12:48:20.889Z,78.50
2017-10-05T12:50:51.079Z,78.10
2017-10-05T12:53:20.705Z,78.30
2017-10-05T12:55:50.190Z,78.00
2017-10-05T12:58:20.829Z,78.00
2017-10-05T13:00:50.041Z,78.10
2017-10-05T13:03:19.474Z,81.30
2017-10-05T13:05:48.695Z,80.80
2017-10-05T13:08:18.554Z,80.70
2017-10-05T13:10:47.744Z,81.00
2017-10-05T13:13:17.413Z,79.90
2017-10-05T13:15:46.656Z,79.80
2017-10-05T13:18:16.144Z,80.50
2017-10-05T13:20:45.534Z,80.40
2017-10-05T13:23:14.838Z,80.50
2017-10-05T13:25:44.377Z,80.30
2017-10-05T13:28:14.172Z,79.70
2017-10-05T13:30:43.446Z,79.90
2017-10-05T13:33:12.675Z,80.70
2017-10-05T13:35:42.213Z,81.30
2017-10-05T13:38:11.506Z,82.00
2017-10-05T13:40:40.766Z,82.50
2017-10-05T13:43:10.276Z,81.50
2017-10-05T13:45:39.755Z,82.50
2017-10-05T13:48:09.358Z,81.70
2017-10-05T13:50:39.037Z,81.20
2017-10-05T13:53:08.432Z,81.70
2017-10-05T13:55:37.953Z,81.70
2017-10-05T13:58:07.332Z,81.60
2017-10-05T14:00:37.869Z,81.10
2017-10-05T14:03:07.164Z,81.20
2017-10-05T14:05:36.391Z,82.40
2017-10-05T14:08:05.757Z,81.60
2017-10-05T14:10:35.379Z,81.60
2017-10-05T14:13:04.593Z,81.60
2017-10-05T14:15:33.757Z,81.60
2017-10-05T14:18:03.337Z,81.30
2017-10-05T14:20:33.620Z,81.00
2017-10-05T14:23:02.877Z,81.00
2017-10-05T14:25:32.633Z,81.30
2017-10-05T14:28:02.136Z,81.30
2017-10-05T14:30:31.419Z,81.00
2017-10-05T14:33:01.028Z,81.30
2017-10-05T14:35:31.821Z,81.30
2017-10-05T14:38:01.397Z,81.40
2017-10-05T14:40:30.562Z,81.30
2017-10-05T14:42:59.858Z,81.50
2017-10-05T14:45:29.354Z,80.90
2017-10-05T14:47:58.936Z,80.70
2017-10-05T14:50:28.278Z,81.40
2017-10-05T14:52:57.725Z,81.80
2017-10-05T14:55:27.109Z,81.10
2017-10-05T14:57:56.562Z,81.00
2017-10-05T15:00:26.116Z,81.00
2017-10-05T15:02:56.643Z,81.20
2017-10-05T15:05:26.042Z,81.40
2017-10-05T15:07:56.936Z,81.20
2017-10-05T15:10:26.172Z,81.60
2017-10-05T15:12:55.597Z,81.40
2017-10-05T15:15:24.850Z,81.20
2017-10-05T15:17:54.208Z,80.70
2017-10-05T15:20:23.552Z,80.80
2017-10-05T15:22:52.868Z,80.00
2017-10-05T15:25:22.343Z,80.90
2017-10-05T15:27:52.745Z,80.00
2017-10-05T15:30:22.377Z,80.00
2017-10-05T15:32:51.721Z,82.70
2017-10-05T15:35:21.159Z,74.00
2017-10-05T15:37:51.243Z,60.70
2017-10-05T15:40:20.523Z,60.90
2017-10-05T15:42:49.851Z,58.90
2017-10-05T15:45:19.024Z,56.40
2017-10-05T15:47:48.504Z,53.50
2017-10-05T15:50:18.870Z,48.10
2017-10-05T15:52:48.295Z,47.20
2017-10-05T15:55:17.449Z,40.70
2017-10-05T15:57:46.577Z,36.40
2017-10-05T16:00:15.750Z,29.10
2017-10-05T16:02:44.966Z,27.70
2017-10-05T16:05:15.997Z,25.50
2017-10-05T16:07:45.320Z,22.50
2017-10-05T16:10:14.501Z,21.60
2017-10-05T16:12:43.913Z,21.30
2017-10-05T16:15:13.100Z,20.90
2017-10-05T16:17:42.526Z,21.30
2017-10-05T16:20:11.877Z,21.70
2017-10-05T16:22:42.003Z,22.90
2017-10-05T16:25:11.339Z,22.80
2017-10-05T16:27:40.643Z,24.10
2017-10-05T16:30:09.758Z,25.30
2017-10-05T16:32:38.999Z,26.60
2017-10-05T16:35:08.423Z,27.40
2017-10-05T16:37:37.823Z,27.80
2017-10-05T16:40:07.121Z,28.40
2017-10-05T16:42:36.373Z,27.90
2017-10-05T16:45:05.464Z,27.80
2017-10-05T16:47:34.668Z,28.30
2017-10-05T16:50:03.869Z,28.80
2017-10-05T16:52:33.182Z,29.20
2017-10-05T16:55:02.930Z,27.90
2017-10-05T16:57:32.224Z,27.90
2017-10-05T17:00:01.408Z,28.90
2017-10-05T17:02:31.325Z,29.10
2017-10-05T17:05:00.904Z,29.60
2017-10-05T17:07:32.046Z,30.10
2017-10-05T17:10:01.351Z,29.70
2017-10-05T17:12:30.397Z,29.00
2017-10-05T17:14:59.640Z,30.00
2017-10-05T17:17:28.798Z,30.70
2017-10-05T17:19:58.547Z,31.00
2017-10-05T17:22:28.745Z,31.70
2017-10-05T17:24:57.925Z,31.70
2017-10-05T17:27:27.257Z,32.30
2017-10-05T17:29:56.645Z,32.10
2017-10-05T17:32:25.788Z,33.60
2017-10-05T17:34:55.065Z,33.90
2017-10-05T17:37:24.704Z,34.50
2017-10-05T17:39:54.064Z,34.00
2017-10-05T17:42:22.890Z,34.40
2017-10-05T17:44:52.853Z,35.20
2017-10-05T17:47:22.260Z,35.20
2017-10-05T17:49:51.542Z,34.30
2017-10-05T17:52:21.058Z,33.90
2017-10-05T17:54:50.469Z,34.30
2017-10-05T17:57:19.865Z,33.50
2017-10-05T17:59:49.028Z,35.10
2017-10-05T18:02:18.437Z,35.40
2017-10-05T18:04:47.615Z,34.30
2017-10-05T18:07:16.998Z,32.40
2017-10-05T18:09:47.482Z,33.30
2017-10-05T18:12:16.906Z,32.80
2017-10-05T18:14:45.956Z,32.60
2017-10-05T18:17:15.246Z,32.20
2017-10-05T18:19:44.575Z,32.10
2017-10-05T18:22:13.971Z,32.10
2017-10-05T18:24:43.410Z,31.30
2017-10-05T18:27:12.666Z,30.80
2017-10-05T18:29:41.928Z,29.30
2017-10-05T18:32:10.904Z,29.40
2017-10-05T18:34:40.395Z,31.20
2017-10-05T18:37:09.555Z,30.90
2017-10-05T18:39:39.015Z,30.90
2017-10-05T18:42:08.657Z,29.80
2017-10-05T18:44:37.785Z,29.30
2017-10-05T18:47:07.280Z,29.30
2017-10-05T18:49:37.013Z,29.30
2017-10-05T18:52:06.206Z,29.60
2017-10-05T18:54:35.536Z,28.70
2017-10-05T18:57:04.899Z,27.60
2017-10-05T18:59:33.954Z,28.50
2017-10-05T19:02:03.006Z,27.60
2017-10-05T19:04:32.528Z,28.20
2017-10-05T19:07:01.536Z,28.30
2017-10-05T19:09:30.615Z,28.00
2017-10-05T19:12:03.120Z,28.20
2017-10-05T19:14:32.955Z,27.00
2017-10-05T19:17:01.960Z,27.00
2017-10-05T19:19:31.221Z,26.80
2017-10-05T19:22:00.586Z,28.00
2017-10-05T19:24:29.891Z,28.90
2017-10-05T19:26:59.408Z,24.90
2017-10-05T19:29:28.907Z,26.10
2017-10-05T19:31:57.984Z,27.20
2017-10-05T19:34:27.280Z,27.20
2017-10-05T19:36:56.391Z,28.30
2017-10-05T19:39:25.973Z,27.50
2017-10-05T19:41:55.197Z,24.20
2017-10-05T19:44:24.709Z,23.50
2017-10-05T19:46:53.757Z,23.80
2017-10-05T19:49:22.992Z,22.80
2017-10-05T19:51:52.061Z,21.50
2017-10-05T19:54:21.395Z,21.90
2017-10-05T19:56:50.876Z,21.10
2017-10-05T19:59:19.978Z,21.00
2017-10-05T20:01:49.108Z,18.90
2017-10-05T20:04:19.250Z,20.00
2017-10-05T20:06:48.442Z,20.30
2017-10-05T20:09:17.790Z,19.00
2017-10-05T20:11:47.538Z,20.10
2017-10-05T20:14:34.681Z,20.00
2017-10-05T20:30:52.397Z,20.10
2017-10-05T20:33:21.474Z,19.80
2017-10-05T20:35:50.804Z,19.30
2017-10-05T20:38:20.982Z,20.80
2017-10-05T20:40:50.156Z,20.80
2017-10-05T20:43:19.238Z,20.50
2017-10-05T20:45:48.636Z,19.70
2017-10-05T20:48:18.659Z,19.20
2017-10-05T20:50:47.895Z,19.10
2017-10-05T20:53:17.143Z,19.50
2017-10-05T20:55:47.197Z,18.60
2017-10-05T20:58:16.739Z,18.60
2017-10-05T21:00:45.877Z,19.30
2017-10-05T21:03:15.065Z,18.00
2017-10-05T21:05:44.571Z,21.00
2017-10-05T21:08:13.696Z,20.30
2017-10-05T21:10:43.085Z,20.30
2017-10-05T21:13:12.339Z,19.70
2017-10-05T21:15:43.441Z,20.00
2017-10-05T21:18:12.984Z,19.80
2017-10-05T21:20:42.413Z,18.90
2017-10-05T21:23:11.608Z,20.20
2017-10-05T21:25:40.925Z,17.40
2017-10-05T21:28:10.855Z,19.00
2017-10-05T21:30:40.153Z,19.00
2017-10-05T21:33:09.585Z,16.20
2017-10-05T21:35:38.808Z,17.60
2017-10-05T21:38:09.789Z,17.40
2017-10-05T21:40:39.164Z,17.40
2017-10-05T21:43:08.226Z,16.70
2017-10-05T21:45:37.539Z,17.00
2017-10-05T21:48:06.852Z,15.70
2017-10-05T21:50:36.479Z,17.10
2017-10-05T21:53:05.995Z,15.10
2017-10-05T21:55:35.226Z,15.40
2017-10-05T21:58:04.856Z,16.40
2017-10-05T22:00:34.652Z,16.60
2017-10-05T22:03:04.538Z,16.00
2017-10-05T22:05:34.567Z,15.80
2017-10-05T22:08:04.281Z,16.40
2017-10-05T22:10:33.829Z,16.60
2017-10-05T22:13:03.550Z,17.10
2017-10-05T22:15:32.955Z,16.30
2017-10-05T22:18:04.394Z,15.60
2017-10-05T22:20:33.778Z,15.70
2017-10-05T22:23:03.413Z,15.60
2017-10-05T22:25:32.581Z,15.70
2017-10-05T22:28:02.430Z,15.60
2017-10-05T22:30:32.402Z,15.70
2017-10-05T22:33:02.277Z,16.50
2017-10-05T22:35:31.535Z,15.90
2017-10-05T22:38:01.202Z,16.20
2017-10-05T22:40:32.470Z,16.40
2017-10-05T22:43:02.045Z,15.40
2017-10-05T22:45:32.302Z,14.90
2017-10-05T22:48:01.468Z,14.90
2017-10-05T22:50:30.872Z,14.60
2017-10-05T22:53:02.012Z,13.40
2017-10-05T22:55:32.418Z,14.30
2017-10-05T22:58:01.736Z,14.30
2017-10-05T23:00:31.533Z,14.00
2017-10-05T23:03:01.242Z,14.40
2017-10-05T23:05:30.681Z,14.10
2017-10-05T23:08:01.522Z,13.60
2017-10-05T23:10:30.802Z,14.60
2017-10-05T23:13:01.321Z,13.70
2017-10-05T23:15:31.429Z,13.40
2017-10-05T23:18:01.317Z,13.40
2017-10-05T23:20:32.047Z,13.40
2017-10-05T23:23:01.701Z,13.50
2017-10-05T23:25:32.367Z,13.80
2017-10-05T23:28:01.610Z,12.80
2017-10-05T23:30:33.046Z,13.20
2017-10-05T23:33:02.227Z,13.50
2017-10-05T23:35:31.921Z,13.60
2017-10-05T23:38:01.611Z,12.70
2017-10-05T23:40:30.869Z,12.20
2017-10-05T23:43:00.243Z,12.00
2017-10-05T23:45:29.691Z,12.20
2017-10-05T23:47:58.750Z,12.20
2017-10-05T23:50:28.158Z,12.70
2017-10-05T23:52:57.563Z,12.30
2017-10-05T23:55:27.195Z,13.00
2017-10-05T23:57:56.426Z,12.60
